Time;durP1;ratioP1;P1;durP2;ratioP2;P2;SDS_P1;SDS_P2;PMS_P1;PMS_P2;Temp;Humidity;BMP_temperature;BMP_pressure;BME280_temperature;BME280_humidity;BME280_pressure;Samples;Min_cycle;Max_cycle;Signal;HPM_P1;HPM_P2
2020/12/12 00:02:19;;;;;;;16.48;9.18;;;;;;;10.22;69.88;98491.28;5075636;28;20051;-76
2020/12/12 00:04:44;;;;;;;12.07;8.07;;;;;;;10.36;69.78;98503.47;5075561;28;20028;-77
2020/12/12 00:07:10;;;;;;;10.57;6.78;;;;;;;10.46;70.08;98522.38;5057913;28;20052;-76
2020/12/12 00:09:36;;;;;;;10.00;6.40;;;;;;;10.39;70.12;98497.78;5075404;28;20028;-76
2020/12/12 00:12:02;;;;;;;10.48;6.18;;;;;;;10.49;69.89;98516.72;5075710;28;20025;-76
2020/12/12 00:14:27;;;;;;;8.38;6.10;;;;;;;10.47;70.04;98506.34;5075391;28;20038;-76
2020/12/12 00:16:53;;;;;;;9.15;6.28;;;;;;;10.39;69.77;98508.34;5075300;28;20032;-76
2020/12/12 00:19:19;;;;;;;10.00;6.75;;;;;;;10.32;70.13;98496.97;5075423;28;20035;-76
2020/12/12 00:21:50;;;;;;;10.52;7.00;;;;;;;10.39;70.04;98503.88;5075483;28;20025;-77
2020/12/12 00:24:15;;;;;;;17.37;10.30;;;;;;;10.39;70.50;98513.63;5057615;28;20032;-75
2020/12/12 00:26:40;;;;;;;17.40;9.35;;;;;;;9.76;70.37;98399.72;5057468;28;20103;-76
2020/12/12 00:29:06;;;;;;;18.92;9.52;;;;;;;10.27;70.51;98487.03;5075142;28;20323;-76
2020/12/12 00:31:31;;;;;;;15.15;9.48;;;;;;;10.27;70.52;98478.31;5074957;28;20444;-76
2020/12/12 00:33:57;;;;;;;14.98;7.80;;;;;;;10.04;70.58;98439.91;5075420;28;20039;-76
2020/12/12 00:36:22;;;;;;;18.38;8.57;;;;;;;9.78;70.27;98397.69;5075339;28;20051;-77
2020/12/12 00:38:47;;;;;;;12.82;7.38;;;;;;;10.23;70.52;98455.97;5085957;28;20039;-76
2020/12/12 00:41:13;;;;;;;15.45;7.47;;;;;;;10.38;71.05;98485.63;5075975;28;20029;-76
2020/12/12 00:43:38;;;;;;;10.25;6.88;;;;;;;10.29;70.52;98455.97;5075046;28;20043;-76
2020/12/12 00:46:03;;;;;;;10.60;5.68;;;;;;;10.18;71.07;98449.44;5074985;28;20057;-76
2020/12/12 00:48:29;;;;;;;12.02;6.63;;;;;;;10.50;70.81;98486.66;5056974;28;20029;-76
2020/12/12 00:50:54;;;;;;;9.20;6.10;;;;;;;10.50;71.27;98484.03;5074905;28;20063;-77
2020/12/12 00:53:20;;;;;;;8.43;6.20;;;;;;;10.49;71.50;98488.50;5074989;28;20021;-76
2020/12/12 00:55:45;;;;;;;8.55;6.18;;;;;;;10.08;71.38;98420.03;5074725;28;20075;-76
2020/12/12 00:58:10;;;;;;;13.30;6.93;;;;;;;10.52;71.36;98481.19;5074936;28;20408;-76
2020/12/12 01:00:36;;;;;;;9.43;6.18;;;;;;;10.50;71.84;98471.63;5074700;28;20024;-77
2020/12/12 01:03:02;;;;;;;8.23;5.22;;;;;;;10.42;71.39;98444.66;5074712;28;20417;-78
2020/12/12 01:05:29;;;;;;;9.40;6.28;;;;;;;10.54;71.73;98456.22;5074630;28;20415;-77
2020/12/12 01:07:54;;;;;;;9.82;6.32;;;;;;;10.54;71.78;98455.41;5056842;28;20028;-77
2020/12/12 01:10:20;;;;;;;11.73;7.30;;;;;;;10.56;71.80;98451.53;5074723;28;20355;-77
2020/12/12 01:12:46;;;;;;;9.85;7.03;;;;;;;10.06;71.65;98364.03;5056807;28;20438;-77
2020/12/12 01:15:11;;;;;;;11.13;6.45;;;;;;;10.26;71.87;98394.91;5074692;28;20438;-77
2020/12/12 01:17:37;;;;;;;9.38;6.80;;;;;;;10.28;71.69;98390.22;5074509;28;20350;-76
2020/12/12 01:20:04;;;;;;;10.45;7.32;;;;;;;10.52;72.07;98412.56;5074444;28;20411;-77
2020/12/12 01:22:29;;;;;;;10.95;7.28;;;;;;;10.59;71.94;98416.00;5074483;28;20442;-77
2020/12/12 01:24:54;;;;;;;9.48;6.95;;;;;;;10.36;71.87;98382.09;5074584;28;20056;-77
2020/12/12 01:27:20;;;;;;;9.38;6.38;;;;;;;10.36;72.35;98384.75;5056833;28;20419;-77
2020/12/12 01:29:45;;;;;;;9.10;6.95;;;;;;;10.24;72.23;98360.81;5074309;28;20032;-76
2020/12/12 01:32:11;;;;;;;10.32;7.82;;;;;;;10.10;72.41;98333.59;5074418;28;20389;-76
2020/12/12 01:34:36;;;;;;;11.70;7.50;;;;;;;10.25;72.32;98351.06;5074247;28;20027;-76
2020/12/12 01:37:02;;;;;;;11.32;8.07;;;;;;;10.42;72.02;98362.84;5074528;28;20051;-77
2020/12/12 01:39:27;;;;;;;13.82;9.23;;;;;;;10.29;72.57;98344.38;5074320;28;20021;-76
2020/12/12 01:41:56;;;;;;;10.50;7.65;;;;;;;10.30;72.38;98352.06;5056590;28;20158;-77
2020/12/12 01:44:21;;;;;;;12.45;8.88;;;;;;;10.19;72.39;98315.75;5084413;28;20024;-77
2020/12/12 01:46:48;;;;;;;15.70;9.50;;;;;;;10.35;72.71;98333.81;5060822;28;20024;-77
2020/12/12 01:49:14;;;;;;;14.02;9.00;;;;;;;10.66;72.74;98383.31;5056689;28;20472;-77
2020/12/12 01:51:40;;;;;;;13.18;9.50;;;;;;;10.38;72.84;98325.47;5074214;28;20099;-77
2020/12/12 01:54:08;;;;;;;13.85;9.40;;;;;;;10.30;73.20;98307.22;5074029;28;20393;-77
2020/12/12 01:56:33;;;;;;;13.52;8.93;;;;;;;10.55;72.83;98349.63;5058347;28;20031;-75
2020/12/12 01:58:58;;;;;;;12.55;9.50;;;;;;;10.65;73.18;98347.38;5076819;28;20025;-76
2020/12/12 02:01:27;;;;;;;14.20;10.13;;;;;;;10.57;73.44;98347.59;5076755;28;20029;-77
2020/12/12 02:03:55;;;;;;;14.88;9.73;;;;;;;10.66;72.94;98343.69;5076658;28;20035;-76
2020/12/12 02:06:21;;;;;;;13.00;9.95;;;;;;;10.66;72.69;98338.44;5059059;28;20025;-77
2020/12/12 02:08:53;;;;;;;16.90;10.10;;;;;;;10.68;73.33;98328.47;5069232;28;20025;-76
2020/12/12 02:11:20;;;;;;;11.98;9.98;;;;;;;10.32;73.37;98272.72;5085007;28;20029;-77
2020/12/12 02:13:47;;;;;;;20.05;11.82;;;;;;;10.69;73.00;98314.25;5076473;28;20449;-77
2020/12/12 02:16:16;;;;;;;17.15;12.45;;;;;;;10.63;73.17;98303.72;5076787;28;20085;-77
2020/12/12 02:18:42;;;;;;;14.35;10.60;;;;;;;10.34;73.14;98247.75;5076405;28;20017;-78
2020/12/12 02:21:08;;;;;;;13.07;9.60;;;;;;;10.69;73.40;98308.97;5076501;28;20146;-76
2020/12/12 02:23:34;;;;;;;19.05;10.90;;;;;;;10.37;73.41;98251.81;5076340;28;20382;-78
2020/12/12 02:25:59;;;;;;;16.67;11.38;;;;;;;10.55;73.80;98286.28;5076436;28;20397;-77
2020/12/12 02:28:29;;;;;;;19.48;12.88;;;;;;;10.75;73.08;98312.59;5076313;28;20028;-78
2020/12/12 02:30:55;;;;;;;22.90;12.40;;;;;;;10.57;73.67;98278.16;5076429;28;20017;-77
2020/12/12 02:33:20;;;;;;;24.67;13.82;;;;;;;10.27;73.74;98232.97;5076249;28;20058;-77
2020/12/12 02:35:46;;;;;;;12.32;10.02;;;;;;;10.69;74.02;98284.41;5076142;28;20032;-77
2020/12/12 02:38:11;;;;;;;18.30;12.98;;;;;;;10.75;73.70;98297.56;5076330;28;20173;-77
2020/12/12 02:40:37;;;;;;;20.58;14.35;;;;;;;10.55;73.64;98256.44;5058349;28;20028;-76
2020/12/12 02:43:02;;;;;;;13.82;10.70;;;;;;;10.62;73.45;98267.78;5076117;28;20492;-77
2020/12/12 02:45:27;;;;;;;14.13;11.00;;;;;;;10.74;74.07;98285.41;5076030;28;20091;-77
2020/12/12 02:47:53;;;;;;;20.52;11.63;;;;;;;10.70;74.06;98267.53;5076048;28;20341;-77
2020/12/12 02:50:26;;;;;;;15.40;11.00;;;;;;;10.54;73.79;98241.63;5058280;28;20016;-77
2020/12/12 02:52:53;;;;;;;18.70;10.90;;;;;;;10.66;73.60;98250.50;5076115;28;20017;-77
2020/12/12 02:55:18;;;;;;;14.38;10.18;;;;;;;10.86;74.12;98267.06;5053634;28;649943;-77
2020/12/12 02:57:44;;;;;;;13.80;9.93;;;;;;;10.78;73.89;98259.38;5059162;28;20106;-76
2020/12/12 03:00:13;;;;;;;13.63;10.00;;;;;;;10.57;74.32;98205.06;5076847;28;20040;-77
2020/12/12 03:02:39;;;;;;;13.88;9.38;;;;;;;10.84;74.09;98242.69;5076952;28;20039;-76
2020/12/12 03:05:06;;;;;;;12.55;9.13;;;;;;;10.71;74.02;98213.72;5076780;28;20024;-77
2020/12/12 03:07:32;;;;;;;12.38;9.50;;;;;;;10.93;74.44;98251.19;5075516;28;20021;-76
2020/12/12 03:09:58;;;;;;;14.73;10.07;;;;;;;10.85;74.52;98236.41;5076725;28;20028;-76
2020/12/12 03:12:24;;;;;;;12.63;10.02;;;;;;;10.93;74.37;98236.16;5076957;28;20353;-77
2020/12/12 03:14:49;;;;;;;14.30;9.88;;;;;;;10.54;74.17;98173.81;5084815;28;20052;-77
2020/12/12 03:17:15;;;;;;;15.25;11.32;;;;;;;10.94;73.90;98237.75;5086234;28;20032;-77
2020/12/12 03:19:40;;;;;;;16.40;11.85;;;;;;;10.76;74.55;98209.44;5059068;28;20107;-76
2020/12/12 03:22:06;;;;;;;13.90;10.63;;;;;;;10.62;74.33;98184.13;5076610;28;20032;-76
2020/12/12 03:24:32;;;;;;;13.05;10.05;;;;;;;10.53;74.54;98168.75;5076480;28;20107;-76
2020/12/12 03:26:57;;;;;;;12.45;10.60;;;;;;;10.95;74.55;98231.47;5076554;28;20450;-76
2020/12/12 03:29:23;;;;;;;14.43;11.48;;;;;;;10.73;74.42;98183.47;5058664;28;20028;-76
2020/12/12 03:31:48;;;;;;;12.32;10.60;;;;;;;10.95;74.33;98215.63;5076465;28;20098;-77
2020/12/12 03:34:14;;;;;;;15.00;10.98;;;;;;;10.67;74.48;98167.66;5076304;28;20063;-76
2020/12/12 03:36:39;;;;;;;13.05;11.20;;;;;;;10.64;74.08;98158.34;5076167;28;20055;-77
2020/12/12 03:39:04;;;;;;;15.10;11.15;;;;;;;10.87;74.46;98196.56;5058542;28;20027;-76
2020/12/12 03:41:30;;;;;;;12.88;10.63;;;;;;;10.50;74.29;98133.03;5076086;28;20086;-76
2020/12/12 03:43:55;;;;;;;12.70;11.23;;;;;;;10.95;74.85;98191.84;5058399;28;20036;-75
2020/12/12 03:46:20;;;;;;;14.60;10.48;;;;;;;10.95;74.87;98194.50;5076137;28;20033;-76
2020/12/12 03:48:46;;;;;;;14.57;10.05;;;;;;;10.76;74.58;98174.31;5075839;28;20036;-76
2020/12/12 03:51:11;;;;;;;11.20;9.95;;;;;;;10.59;74.77;98146.78;5058180;28;20350;-76
2020/12/12 03:53:37;;;;;;;12.25;9.57;;;;;;;10.83;74.99;98173.25;5075832;28;20036;-77
2020/12/12 03:56:02;;;;;;;12.93;10.50;;;;;;;10.93;75.15;98182.53;5058064;28;20044;-79
2020/12/12 03:58:28;;;;;;;10.90;8.63;;;;;;;10.59;74.78;98123.03;5075847;28;20049;-76
2020/12/12 04:00:53;;;;;;;10.18;9.02;;;;;;;10.76;74.72;98147.91;5075726;28;20028;-77
2020/12/12 04:03:18;;;;;;;11.38;8.18;;;;;;;10.88;74.50;98156.75;5075787;28;20085;-76
2020/12/12 04:05:44;;;;;;;12.15;9.00;;;;;;;10.82;74.99;98147.84;5057794;28;20441;-78
2020/12/12 04:08:13;;;;;;;10.38;8.70;;;;;;;10.71;74.77;98139.81;5058002;28;20028;-76
2020/12/12 04:10:38;;;;;;;9.52;7.90;;;;;;;10.98;74.28;98174.78;5075465;28;20032;-77
2020/12/12 04:13:04;;;;;;;11.30;7.95;;;;;;;10.76;74.63;98137.34;5075634;28;20078;-76
2020/12/12 04:15:29;;;;;;;8.52;7.63;;;;;;;10.34;74.58;98070.19;5057646;28;20063;-75
2020/12/12 04:17:55;;;;;;;12.63;9.00;;;;;;;10.86;74.67;98135.03;5057385;28;20021;-76
2020/12/12 04:20:20;;;;;;;10.07;7.80;;;;;;;10.59;74.72;98086.09;5075499;28;20025;-77
2020/12/12 04:22:45;;;;;;;9.32;7.72;;;;;;;10.87;75.29;98125.28;5082598;28;20442;-76
2020/12/12 04:25:11;;;;;;;8.90;7.53;;;;;;;10.54;74.50;98076.19;5058113;28;20028;-79
2020/12/12 04:27:36;;;;;;;10.35;8.60;;;;;;;11.06;75.33;98151.53;5075289;28;20055;-78
2020/12/12 04:30:03;;;;;;;9.80;7.47;;;;;;;10.76;74.95;98095.09;5057431;28;20062;-76
2020/12/12 04:32:28;;;;;;;9.93;7.60;;;;;;;10.71;75.19;98093.09;5057437;28;20024;-76
2020/12/12 04:34:54;;;;;;;11.18;7.95;;;;;;;11.09;74.97;98135.25;5075194;28;20060;-76
2020/12/12 04:37:19;;;;;;;10.25;7.25;;;;;;;10.78;74.98;98085.13;5074960;28;20031;-76
2020/12/12 04:39:44;;;;;;;9.23;7.70;;;;;;;10.94;75.16;98113.66;5075020;28;20101;-76
2020/12/12 04:42:12;;;;;;;11.20;8.38;;;;;;;11.09;75.23;98129.19;5075025;28;20028;-76
2020/12/12 04:44:39;;;;;;;9.82;7.82;;;;;;;10.96;75.21;98106.31;5074972;28;20024;-76
2020/12/12 04:47:06;;;;;;;11.90;7.78;;;;;;;11.07;75.18;98120.66;5075171;28;20052;-76
2020/12/12 04:49:33;;;;;;;8.85;7.30;;;;;;;11.07;75.59;98113.53;5074822;28;20032;-76
2020/12/12 04:52:02;;;;;;;8.43;7.53;;;;;;;10.53;75.08;98029.69;5074864;28;20028;-76
2020/12/12 04:54:32;;;;;;;8.63;7.35;;;;;;;11.12;75.20;98111.06;5056966;28;20059;-77
2020/12/12 04:56:58;;;;;;;10.27;7.65;;;;;;;11.15;75.07;98109.84;5057143;28;20028;-75
2020/12/12 04:59:29;;;;;;;10.52;8.88;;;;;;;11.18;74.97;98103.31;5074850;28;20028;-76
2020/12/12 05:01:54;;;;;;;9.10;7.63;;;;;;;11.19;74.50;98116.31;5057078;28;20419;-77
2020/12/12 05:04:19;;;;;;;9.90;8.05;;;;;;;11.17;74.88;98121.00;5074876;28;20032;-77
2020/12/12 05:06:45;;;;;;;11.80;8.23;;;;;;;11.16;75.45;98100.09;5074574;28;20074;-76
2020/12/12 05:09:10;;;;;;;9.93;8.65;;;;;;;10.62;75.26;98020.50;5074595;28;20028;-76
2020/12/12 05:11:37;;;;;;;10.65;7.50;;;;;;;11.20;75.00;98106.56;5074576;28;20389;-77
2020/12/12 05:14:07;;;;;;;8.25;7.30;;;;;;;10.82;74.69;98036.97;5074873;28;20079;-77
2020/12/12 05:16:33;;;;;;;9.85;8.55;;;;;;;10.67;75.34;98020.66;5056857;28;20029;-78
2020/12/12 05:18:58;;;;;;;11.20;8.57;;;;;;;11.21;75.25;98110.81;5074791;28;20025;-77
2020/12/12 05:21:24;;;;;;;11.52;8.98;;;;;;;11.25;75.36;98089.03;5056833;28;20342;-77
2020/12/12 05:23:49;;;;;;;11.05;9.85;;;;;;;11.20;75.19;98091.50;5074592;28;20032;-77
2020/12/12 05:26:14;;;;;;;12.70;10.05;;;;;;;10.74;75.08;98029.31;5074569;28;20399;-77
2020/12/12 05:28:40;;;;;;;13.93;10.30;;;;;;;11.20;75.31;98086.22;5077217;28;20422;-79
2020/12/12 05:31:06;;;;;;;14.57;10.32;;;;;;;10.71;75.30;98002.56;5082990;28;20051;-77
2020/12/12 05:33:31;;;;;;;13.65;9.93;;;;;;;10.89;75.08;98034.28;5079059;28;20028;-77
2020/12/12 05:35:56;;;;;;;16.05;10.90;;;;;;;10.81;74.83;98019.50;5078654;28;20338;-77
2020/12/12 05:38:22;;;;;;;13.45;10.82;;;;;;;10.89;75.00;98021.06;5078628;28;20028;-78
2020/12/12 05:40:55;;;;;;;13.65;10.85;;;;;;;11.21;75.19;98074.63;5060890;28;20029;-77
2020/12/12 05:43:29;;;;;;;14.50;11.25;;;;;;;11.03;75.31;98048.16;5078900;28;20020;-78
2020/12/12 05:45:54;;;;;;;12.20;10.15;;;;;;;10.74;75.91;98004.75;5078579;28;20409;-79
2020/12/12 05:48:21;;;;;;;13.18;11.00;;;;;;;11.25;75.35;98075.81;5078493;28;20112;-78
2020/12/12 05:50:47;;;;;;;13.73;11.68;;;;;;;11.27;75.21;98083.53;5078221;28;20058;-78
2020/12/12 05:53:15;;;;;;;12.15;10.85;;;;;;;10.88;75.32;98013.38;5060660;28;20017;-76
2020/12/12 05:55:41;;;;;;;15.77;12.30;;;;;;;10.68;75.10;97974.75;5060281;28;20052;-78
2020/12/12 05:58:07;;;;;;;17.42;13.10;;;;;;;11.21;75.51;98050.88;5078516;28;20346;-78
2020/12/12 06:00:32;;;;;;;13.55;12.00;;;;;;;11.30;75.26;98073.31;5078064;28;20038;-76
2020/12/12 06:03:00;;;;;;;14.93;12.50;;;;;;;11.31;75.52;98061.72;5078108;28;20435;-78
2020/12/12 06:05:28;;;;;;;15.98;13.07;;;;;;;11.26;75.91;98055.50;5078048;28;20062;-78
2020/12/12 06:08:00;;;;;;;17.77;13.50;;;;;;;11.02;75.34;98012.22;5060031;28;20036;-75
2020/12/12 06:10:28;;;;;;;19.48;13.35;;;;;;;11.06;75.43;98016.84;5078348;28;20029;-78
2020/12/12 06:12:57;;;;;;;14.65;12.98;;;;;;;11.31;74.87;98063.56;5077853;28;20044;-77
2020/12/12 06:15:32;;;;;;;15.35;13.27;;;;;;;11.23;75.44;98046.16;5077929;28;20035;-76
2020/12/12 06:18:20;;;;;;;15.88;14.18;;;;;;;11.05;75.72;98017.88;5077843;28;20025;-77
2020/12/12 06:20:45;;;;;;;20.38;15.95;;;;;;;11.09;75.29;98026.16;5077780;28;20034;-76
2020/12/12 06:23:11;;;;;;;21.25;14.85;;;;;;;11.11;74.97;98026.75;5077752;28;20028;-76
2020/12/12 06:25:37;;;;;;;18.98;15.85;;;;;;;11.30;75.20;98061.94;5059945;28;20089;-76
2020/12/12 06:28:05;;;;;;;20.55;15.48;;;;;;;11.12;75.80;98033.66;5077677;28;20028;-76
2020/12/12 06:30:31;;;;;;;18.38;14.68;;;;;;;11.14;75.19;98034.25;5059888;28;20060;-76
2020/12/12 06:33:01;;;;;;;24.60;16.83;;;;;;;11.07;75.51;98017.66;5059722;28;20056;-76
2020/12/12 06:35:34;;;;;;;20.77;14.98;;;;;;;11.31;75.97;98056.44;5084268;28;20029;-76
2020/12/12 06:38:19;;;;;;;19.05;13.88;;;;;;;11.32;75.28;98059.91;5078851;28;20020;-77
2020/12/12 06:40:45;;;;;;;21.20;16.00;;;;;;;10.85;75.48;97990.03;5077366;28;20077;-76
2020/12/12 06:43:27;;;;;;;17.83;13.80;;;;;;;11.31;75.93;98058.28;5058028;28;20120;-78
2020/12/12 06:45:52;;;;;;;18.63;14.00;;;;;;;11.31;75.91;98059.09;5061256;28;20028;-76
2020/12/12 06:48:23;;;;;;;19.50;13.05;;;;;;;11.34;76.06;98042.00;5073211;28;20355;-76
2020/12/12 06:50:48;;;;;;;17.27;13.07;;;;;;;11.35;75.86;98043.59;5068227;28;20056;-77
2020/12/12 06:53:25;;;;;;;16.65;13.73;;;;;;;11.31;75.85;98040.59;5073949;28;20051;-76
2020/12/12 06:56:14;;;;;;;21.63;15.38;;;;;;;11.37;76.17;98046.84;5076735;28;20045;-77
2020/12/12 06:58:41;;;;;;;17.60;14.15;;;;;;;11.34;75.90;98034.06;5071482;28;20044;-76
2020/12/12 07:01:31;;;;;;;19.58;14.98;;;;;;;11.28;75.91;98030.47;5076974;28;20036;-76
2020/12/12 07:03:59;;;;;;;17.52;14.13;;;;;;;11.42;75.51;98042.50;5063906;28;20046;-76
2020/12/12 07:06:26;;;;;;;18.17;14.07;;;;;;;11.02;75.71;97977.88;5039051;28;20373;-76
2020/12/12 07:08:52;;;;;;;21.90;14.80;;;;;;;11.28;75.33;98025.19;5073824;28;20728;-77
2020/12/12 07:11:26;;;;;;;19.52;15.65;;;;;;;11.06;75.02;98001.00;5076720;28;20028;-76
2020/12/12 07:13:53;;;;;;;18.27;13.80;;;;;;;11.27;75.19;98023.56;5075670;28;20330;-78
2020/12/12 07:16:19;;;;;;;17.48;12.73;;;;;;;11.27;74.99;98026.22;5075422;28;20119;-77
2020/12/12 07:18:46;;;;;;;15.63;11.98;;;;;;;11.35;75.56;98028.56;5058640;28;20024;-79
2020/12/12 07:21:12;;;;;;;15.88;12.45;;;;;;;11.35;75.65;98023.28;5058929;28;20405;-82
2020/12/12 07:23:39;;;;;;;17.80;14.13;;;;;;;11.08;75.25;97977.81;5075467;28;20085;-76
2020/12/12 07:26:05;;;;;;;13.75;10.98;;;;;;;10.92;74.87;97956.47;5075936;28;20040;-77
2020/12/12 07:28:31;;;;;;;14.60;12.00;;;;;;;11.19;75.76;97996.63;5075843;28;20089;-76
2020/12/12 07:30:56;;;;;;;16.48;11.20;;;;;;;11.33;75.42;98019.25;5074503;28;20032;-77
2020/12/12 07:33:22;;;;;;;14.00;12.52;;;;;;;10.90;75.39;97953.22;5074581;28;20066;-77
2020/12/12 07:35:47;;;;;;;16.73;12.52;;;;;;;11.24;75.12;98010.00;5075688;28;20036;-76
2020/12/12 07:38:12;;;;;;;18.45;14.63;;;;;;;11.04;75.43;97965.25;5076431;28;20115;-77
2020/12/12 07:40:38;;;;;;;16.67;13.55;;;;;;;11.32;75.52;98018.44;5076327;28;20024;-76
2020/12/12 07:43:08;;;;;;;16.55;12.07;;;;;;;11.32;75.71;98001.78;5080605;28;20574;-78
2020/12/12 07:48:17;;;;;;;11.20;9.77;;;;;;;11.05;75.27;97957.13;5074874;28;20060;-78
2020/12/12 07:50:43;;;;;;;11.55;8.18;;;;;;;11.02;75.31;97940.91;5075937;28;20422;-78
2020/12/12 07:53:13;;;;;;;10.50;7.95;;;;;;;10.95;75.49;97933.06;5074643;28;20028;-77
2020/12/12 07:55:44;;;;;;;12.52;8.82;;;;;;;11.37;75.23;98008.00;5056755;28;20052;-76
2020/12/12 07:58:35;;;;;;;12.50;9.30;;;;;;;11.41;75.61;98001.25;5075105;28;20112;-77
2020/12/12 08:01:05;;;;;;;9.70;7.78;;;;;;;10.68;75.38;97871.81;5062173;28;20037;-77
2020/12/12 08:03:32;;;;;;;11.50;9.57;;;;;;;11.51;75.17;97999.94;5038166;28;20033;-76
2020/12/12 08:06:08;;;;;;;18.48;14.10;;;;;;;11.40;74.82;97980.34;5073406;28;20024;-75
2020/12/12 08:08:35;;;;;;;15.57;11.57;;;;;;;11.41;74.50;97995.97;5068648;28;20043;-78
2020/12/12 08:11:03;;;;;;;11.95;10.63;;;;;;;10.74;74.40;97907.09;5073675;28;20626;-78
2020/12/12 08:13:29;;;;;;;13.98;10.57;;;;;;;11.26;74.10;98006.09;5075987;28;20093;-76
2020/12/12 08:16:07;;;;;;;12.95;10.43;;;;;;;11.22;74.34;97999.66;5075162;28;20423;-76
2020/12/12 08:18:33;;;;;;;12.60;10.85;;;;;;;11.16;73.91;98002.34;5071588;28;20055;-76
2020/12/12 08:21:19;;;;;;;19.10;14.38;;;;;;;10.63;73.38;97919.19;5073804;28;20439;-77
2020/12/12 08:23:45;;;;;;;19.70;14.52;;;;;;;10.93;73.67;97979.19;5069541;28;20032;-77
2020/12/12 08:26:13;;;;;;;24.45;16.52;;;;;;;10.71;74.09;97953.22;5074737;28;20032;-76
2020/12/12 08:28:39;;;;;;;20.38;14.52;;;;;;;10.78;73.79;97975.06;5055390;28;20090;-76
2020/12/12 08:31:18;;;;;;;19.20;15.43;;;;;;;10.36;73.95;97923.06;5071976;28;20032;-78
2020/12/12 08:33:45;;;;;;;17.27;12.85;;;;;;;10.70;74.06;97983.25;5071149;28;20028;-76
2020/12/12 08:36:13;;;;;;;21.88;15.68;;;;;;;10.28;74.17;97925.97;5072570;28;20438;-76
2020/12/12 08:38:40;;;;;;;18.95;14.10;;;;;;;9.97;74.23;97884.59;5072316;28;20488;-77
2020/12/12 08:41:12;;;;;;;33.63;22.10;;;;;;;10.48;73.25;97974.94;5071210;28;20088;-77
2020/12/12 08:43:41;;;;;;;23.20;16.40;;;;;;;10.42;73.70;97972.34;5050056;28;20040;-76
2020/12/12 08:46:06;;;;;;;19.95;14.68;;;;;;;10.44;74.00;97970.28;5070497;28;20040;-78
2020/12/12 08:48:36;;;;;;;13.60;11.75;;;;;;;10.15;73.70;97921.56;5056240;28;20427;-79
2020/12/12 08:51:07;;;;;;;9.93;8.25;;;;;;;10.34;73.57;97965.47;5079749;28;20082;-78
2020/12/12 08:53:36;;;;;;;11.93;9.32;;;;;;;10.35;73.69;97951.25;5074723;28;20032;-80
2020/12/12 08:56:14;;;;;;;10.73;8.00;;;;;;;10.34;73.34;97954.91;5054731;28;20359;-77
2020/12/12 08:58:43;;;;;;;12.60;9.07;;;;;;;10.04;73.04;97896.69;5071551;28;20055;-77
2020/12/12 09:01:13;;;;;;;15.32;11.05;;;;;;;10.28;73.73;97945.22;5074976;28;20024;-81
2020/12/12 09:03:51;;;;;;;12.90;9.98;;;;;;;10.19;73.50;97947.28;5066007;28;20103;-80
2020/12/12 09:06:17;;;;;;;14.82;11.50;;;;;;;10.24;73.58;97943.25;5062729;28;20056;-77
2020/12/12 09:08:43;;;;;;;15.23;12.77;;;;;;;9.83;73.63;97870.69;5072645;28;20071;-78
2020/12/12 09:11:17;;;;;;;13.43;11.13;;;;;;;9.64;72.96;97832.09;5056994;28;20235;-76
2020/12/12 09:13:42;;;;;;;17.20;13.05;;;;;;;10.24;73.70;97937.97;5073482;28;20341;-77
2020/12/12 09:16:09;;;;;;;18.42;14.60;;;;;;;9.84;73.44;97864.41;5070086;28;20112;-77
2020/12/12 09:18:45;;;;;;;21.95;16.63;;;;;;;10.08;73.47;97903.16;5072176;28;20031;-76
2020/12/12 09:21:11;;;;;;;17.13;13.55;;;;;;;9.82;73.22;97855.91;5054787;28;20501;-76
2020/12/12 09:23:37;;;;;;;20.58;16.45;;;;;;;9.83;73.50;97865.44;5073949;28;20116;-78
2020/12/12 09:26:03;;;;;;;22.00;16.85;;;;;;;10.00;73.29;97882.34;5074051;28;20029;-75
2020/12/12 09:28:32;;;;;;;20.05;15.45;;;;;;;10.15;73.17;97893.38;5074538;28;20060;-76
2020/12/12 09:30:57;;;;;;;23.08;17.13;;;;;;;10.38;73.03;97931.56;5073671;28;20484;-76
2020/12/12 09:33:22;;;;;;;24.40;16.95;;;;;;;10.40;73.26;97922.44;5074656;28;20028;-78
2020/12/12 09:35:48;;;;;;;19.42;14.80;;;;;;;10.42;73.34;97930.13;5074303;28;20032;-76
2020/12/12 09:38:13;;;;;;;18.70;15.52;;;;;;;10.27;73.40;97911.16;5074606;28;20107;-78
2020/12/12 09:40:39;;;;;;;24.38;17.38;;;;;;;9.96;73.46;97867.97;5072554;28;20035;-75
2020/12/12 09:43:04;;;;;;;15.95;12.30;;;;;;;10.08;73.27;97907.63;5073015;28;20029;-77
2020/12/12 09:45:30;;;;;;;14.43;11.27;;;;;;;10.01;73.23;97897.13;5071887;28;20036;-81
2020/12/12 09:47:55;;;;;;;14.07;11.50;;;;;;;10.23;73.12;97923.97;5073173;28;20118;-80
2020/12/12 09:50:21;;;;;;;14.57;11.93;;;;;;;10.12;73.30;97896.44;5050395;28;20029;-77
2020/12/12 09:52:46;;;;;;;15.05;11.77;;;;;;;10.06;73.41;97883.31;5071747;28;20044;-78
2020/12/12 09:55:11;;;;;;;15.07;11.05;;;;;;;10.09;73.39;97901.34;5074960;28;20044;-77
2020/12/12 09:57:37;;;;;;;13.80;10.40;;;;;;;9.30;73.19;97778.84;5059251;28;20063;-78
2020/12/12 10:00:03;;;;;;;13.13;10.52;;;;;;;10.18;72.97;97911.41;5052470;28;20033;-77
2020/12/12 10:02:29;;;;;;;16.25;11.73;;;;;;;10.23;72.88;97923.16;5056893;28;20030;-78
2020/12/12 10:04:54;;;;;;;17.77;11.88;;;;;;;10.09;73.53;97899.50;5055173;28;20029;-76
2020/12/12 10:07:20;;;;;;;17.58;14.20;;;;;;;9.70;73.08;97831.25;5071812;28;20040;-77
2020/12/12 10:09:45;;;;;;;12.18;10.02;;;;;;;10.24;73.53;97911.59;5055719;28;20067;-77
2020/12/12 10:12:10;;;;;;;12.00;8.88;;;;;;;9.85;73.29;97868.66;5055229;28;20028;-78
2020/12/12 10:14:36;;;;;;;10.77;8.90;;;;;;;10.25;73.24;97931.66;5074232;28;20090;-78
2020/12/12 10:17:01;;;;;;;13.80;10.15;;;;;;;9.93;72.96;97867.59;5075569;28;20038;-77
2020/12/12 10:19:26;;;;;;;13.75;10.75;;;;;;;10.18;72.67;97936.97;5078085;28;20104;-79
2020/12/12 10:21:52;;;;;;;18.23;14.35;;;;;;;10.11;72.75;97918.56;5077728;28;20028;-78
2020/12/12 10:24:17;;;;;;;12.85;10.32;;;;;;;10.25;72.82;97940.38;5077873;28;20024;-78
2020/12/12 10:26:45;;;;;;;18.92;13.23;;;;;;;10.30;72.54;97943.19;5074686;28;20033;-77
2020/12/12 10:29:10;;;;;;;17.98;13.13;;;;;;;10.02;72.78;97884.75;5075240;28;20079;-77
2020/12/12 10:31:36;;;;;;;17.25;13.73;;;;;;;10.06;72.72;97891.22;5064371;28;20439;-78
2020/12/12 10:34:01;;;;;;;17.85;13.40;;;;;;;9.88;72.82;97852.41;5057477;28;20443;-78
2020/12/12 10:36:27;;;;;;;17.50;11.95;;;;;;;10.41;72.88;97926.69;5076146;28;20439;-77
2020/12/12 10:38:52;;;;;;;15.70;11.40;;;;;;;10.25;72.52;97889.47;5075694;28;20077;-76
2020/12/12 10:41:18;;;;;;;13.23;10.57;;;;;;;10.43;72.62;97918.56;5076100;28;20024;-78
2020/12/12 10:43:43;;;;;;;13.00;8.93;;;;;;;9.85;72.92;97855.47;5076359;28;20533;-77
2020/12/12 10:46:08;;;;;;;13.10;9.35;;;;;;;10.41;72.78;97923.25;5076888;28;20043;-78
2020/12/12 10:48:34;;;;;;;13.15;9.38;;;;;;;10.34;72.61;97904.00;5075766;28;20029;-77
2020/12/12 10:50:59;;;;;;;12.18;8.75;;;;;;;10.13;72.72;97876.16;5058385;28;20115;-80
2020/12/12 10:53:25;;;;;;;11.90;9.15;;;;;;;10.07;72.41;97856.72;5073917;28;20020;-77
2020/12/12 10:55:50;;;;;;;11.80;8.63;;;;;;;9.96;72.01;97822.34;5073682;28;20052;-77
2020/12/12 10:58:15;;;;;;;9.95;8.82;;;;;;;10.31;72.17;97901.78;5074461;28;20036;-82
2020/12/12 11:00:44;;;;;;;14.45;10.90;;;;;;;10.65;71.66;97932.97;5075792;28;20052;-83
2020/12/12 11:03:10;;;;;;;12.90;10.73;;;;;;;10.55;72.30;97926.56;5069242;28;20078;-79
2020/12/12 11:05:36;;;;;;;15.52;11.13;;;;;;;10.05;72.32;97832.41;5077356;28;20032;-83
2020/12/12 11:08:01;;;;;;;13.23;9.40;;;;;;;10.62;71.55;97922.03;5059711;28;20029;-80
2020/12/12 11:10:27;;;;;;;19.27;12.05;;;;;;;10.62;71.50;97917.56;5075535;28;20043;-78
2020/12/12 11:12:52;;;;;;;11.45;8.25;;;;;;;10.78;71.53;97927.56;5077145;28;20423;-78
2020/12/12 11:15:18;;;;;;;12.13;10.05;;;;;;;10.85;71.25;97937.22;5076313;28;20394;-78
2020/12/12 11:17:44;;;;;;;13.48;11.43;;;;;;;10.89;71.30;97944.50;5056690;28;20059;-77
2020/12/12 11:20:16;;;;;;;15.05;11.82;;;;;;;10.47;71.28;97867.78;5056804;28;20123;-81
2020/12/12 11:22:42;;;;;;;16.23;12.27;;;;;;;10.65;71.54;97880.19;5056563;28;20029;-78
2020/12/12 11:25:08;;;;;;;20.35;15.10;;;;;;;11.03;71.39;97929.31;5056345;28;20084;-78